sensor_id;sensor_type;location;lat;lon;timestamp;temperature;humidity
21646;DHT22;10984;45.712;4.800;2023-02-05T00:00:53;8.40;99.90
21646;DHT22;10984;45.712;4.800;2023-02-05T00:03:18;8.40;99.90
21646;DHT22;10984;45.712;4.800;2023-02-05T00:05:44;8.40;99.90
21646;DHT22;10984;45.712;4.800;2023-02-05T00:08:10;8.40;99.90
21646;DHT22;10984;45.712;4.800;2023-02-05T00:10:35;8.40;99.90
21646;DHT22;10984;45.712;4.800;2023-02-05T00:13:01;8.30;99.90
21646;DHT22;10984;45.712;4.800;2023-02-05T00:15:28;8.30;99.90
21646;DHT22;10984;45.712;4.800;2023-02-05T00:17:53;8.30;99.90
21646;DHT22;10984;45.712;4.800;2023-02-05T00:20:19;8.30;99.90
21646;DHT22;10984;45.712;4.800;2023-02-05T00:22:45;8.20;99.90
21646;DHT22;10984;45.712;4.800;2023-02-05T00:25:10;8.20;99.90
21646;DHT22;10984;45.712;4.800;2023-02-05T00:27:36;8.20;99.90
21646;DHT22;10984;45.712;4.800;2023-02-05T00:30:02;8.30;99.90
21646;DHT22;10984;45.712;4.800;2023-02-05T00:32:27;8.30;99.90
21646;DHT22;10984;45.712;4.800;2023-02-05T00:34:53;8.30;99.90
21646;DHT22;10984;45.712;4.800;2023-02-05T00:37:18;8.30;99.90
21646;DHT22;10984;45.712;4.800;2023-02-05T00:39:44;8.30;99.90
21646;DHT22;10984;45.712;4.800;2023-02-05T00:42:10;8.30;99.90
21646;DHT22;10984;45.712;4.800;2023-02-05T00:44:35;8.20;99.90
21646;DHT22;10984;45.712;4.800;2023-02-05T00:47:01;8.20;99.90
21646;DHT22;10984;45.712;4.800;2023-02-05T00:49:26;8.20;99.90
21646;DHT22;10984;45.712;4.800;2023-02-05T00:51:52;8.20;99.90
21646;DHT22;10984;45.712;4.800;2023-02-05T00:54:18;8.10;99.90
21646;DHT22;10984;45.712;4.800;2023-02-05T00:56:43;8.10;99.90
21646;DHT22;10984;45.712;4.800;2023-02-05T00:59:09;8.00;99.90
21646;DHT22;10984;45.712;4.800;2023-02-05T01:01:35;8.10;99.90
21646;DHT22;10984;45.712;4.800;2023-02-05T01:04:01;8.10;99.90
21646;DHT22;10984;45.712;4.800;2023-02-05T01:06:26;8.10;99.90
21646;DHT22;10984;45.712;4.800;2023-02-05T01:08:52;8.00;99.90
21646;DHT22;10984;45.712;4.800;2023-02-05T01:11:18;7.90;99.90
21646;DHT22;10984;45.712;4.800;2023-02-05T01:13:44;8.00;99.90
21646;DHT22;10984;45.712;4.800;2023-02-05T01:16:10;8.00;99.90
21646;DHT22;10984;45.712;4.800;2023-02-05T01:18:36;8.10;99.90
21646;DHT22;10984;45.712;4.800;2023-02-05T01:21:02;8.00;99.90
21646;DHT22;10984;45.712;4.800;2023-02-05T01:23:28;8.00;99.90
21646;DHT22;10984;45.712;4.800;2023-02-05T01:25:53;7.90;99.90
21646;DHT22;10984;45.712;4.800;2023-02-05T01:28:19;8.00;99.90
21646;DHT22;10984;45.712;4.800;2023-02-05T01:31:03;7.90;99.90
21646;DHT22;10984;45.712;4.800;2023-02-05T01:33:29;7.90;99.90
21646;DHT22;10984;45.712;4.800;2023-02-05T01:35:54;7.90;99.90
21646;DHT22;10984;45.712;4.800;2023-02-05T01:38:20;7.80;99.90
21646;DHT22;10984;45.712;4.800;2023-02-05T01:40:46;7.90;99.90
21646;DHT22;10984;45.712;4.800;2023-02-05T01:43:13;7.80;99.90
21646;DHT22;10984;45.712;4.800;2023-02-05T01:48:47;7.80;99.90
21646;DHT22;10984;45.712;4.800;2023-02-05T01:51:15;7.80;99.90
21646;DHT22;10984;45.712;4.800;2023-02-05T01:53:42;7.80;99.90
21646;DHT22;10984;45.712;4.800;2023-02-05T01:56:13;7.80;99.90
21646;DHT22;10984;45.712;4.800;2023-02-05T02:01:29;7.70;99.90
21646;DHT22;10984;45.712;4.800;2023-02-05T02:03:58;7.70;99.90
21646;DHT22;10984;45.712;4.800;2023-02-05T02:06:24;7.70;99.90
21646;DHT22;10984;45.712;4.800;2023-02-05T02:08:50;7.70;99.90
21646;DHT22;10984;45.712;4.800;2023-02-05T02:11:18;7.60;99.90
21646;DHT22;10984;45.712;4.800;2023-02-05T02:13:46;7.60;99.90
21646;DHT22;10984;45.712;4.800;2023-02-05T02:16:13;7.70;99.90
21646;DHT22;10984;45.712;4.800;2023-02-05T02:18:39;7.70;99.90
21646;DHT22;10984;45.712;4.800;2023-02-05T02:30:15;7.50;99.90
21646;DHT22;10984;45.712;4.800;2023-02-05T02:38:26;7.50;99.90
21646;DHT22;10984;45.712;4.800;2023-02-05T02:41:00;7.50;99.90
21646;DHT22;10984;45.712;4.800;2023-02-05T02:46:20;7.50;99.90
21646;DHT22;10984;45.712;4.800;2023-02-05T02:48:49;7.50;99.90
21646;DHT22;10984;45.712;4.800;2023-02-05T02:51:15;7.50;99.90
21646;DHT22;10984;45.712;4.800;2023-02-05T02:53:46;7.50;99.90
21646;DHT22;10984;45.712;4.800;2023-02-05T02:56:13;7.50;99.90
21646;DHT22;10984;45.712;4.800;2023-02-05T02:58:59;7.50;99.90
21646;DHT22;10984;45.712;4.800;2023-02-05T03:01:29;7.50;99.90
21646;DHT22;10984;45.712;4.800;2023-02-05T03:04:03;7.40;99.90
21646;DHT22;10984;45.712;4.800;2023-02-05T03:06:31;7.40;99.90
21646;DHT22;10984;45.712;4.800;2023-02-05T03:09:19;7.40;99.90
21646;DHT22;10984;45.712;4.800;2023-02-05T03:11:46;7.40;99.90
21646;DHT22;10984;45.712;4.800;2023-02-05T03:14:11;7.40;99.90
21646;DHT22;10984;45.712;4.800;2023-02-05T03:16:37;7.40;99.90
21646;DHT22;10984;45.712;4.800;2023-02-05T03:19:03;7.40;99.90
21646;DHT22;10984;45.712;4.800;2023-02-05T03:21:50;7.40;99.90
21646;DHT22;10984;45.712;4.800;2023-02-05T03:24:18;7.40;99.90
21646;DHT22;10984;45.712;4.800;2023-02-05T03:26:44;7.40;99.90
21646;DHT22;10984;45.712;4.800;2023-02-05T03:29:13;7.40;99.90
21646;DHT22;10984;45.712;4.800;2023-02-05T03:37:18;7.30;99.90
21646;DHT22;10984;45.712;4.800;2023-02-05T03:48:57;7.20;99.90
21646;DHT22;10984;45.712;4.800;2023-02-05T03:59:40;7.10;99.90
21646;DHT22;10984;45.712;4.800;2023-02-05T04:02:06;7.10;99.90
21646;DHT22;10984;45.712;4.800;2023-02-05T04:04:31;7.10;99.90
21646;DHT22;10984;45.712;4.800;2023-02-05T04:06:57;7.10;99.90
21646;DHT22;10984;45.712;4.800;2023-02-05T04:09:23;7.10;99.90
21646;DHT22;10984;45.712;4.800;2023-02-05T04:11:48;7.10;99.90
21646;DHT22;10984;45.712;4.800;2023-02-05T04:14:14;7.10;99.90
21646;DHT22;10984;45.712;4.800;2023-02-05T04:16:39;7.10;99.90
21646;DHT22;10984;45.712;4.800;2023-02-05T04:19:05;7.10;99.90
21646;DHT22;10984;45.712;4.800;2023-02-05T04:21:31;7.10;99.90
21646;DHT22;10984;45.712;4.800;2023-02-05T04:23:56;7.00;99.90
21646;DHT22;10984;45.712;4.800;2023-02-05T04:26:22;7.00;99.90
21646;DHT22;10984;45.712;4.800;2023-02-05T04:28:48;7.10;99.90
21646;DHT22;10984;45.712;4.800;2023-02-05T04:31:14;7.00;99.90
21646;DHT22;10984;45.712;4.800;2023-02-05T04:33:40;7.00;99.90
21646;DHT22;10984;45.712;4.800;2023-02-05T04:36:07;7.00;99.90
21646;DHT22;10984;45.712;4.800;2023-02-05T04:38:33;7.00;99.90
21646;DHT22;10984;45.712;4.800;2023-02-05T04:40:59;7.00;99.90
21646;DHT22;10984;45.712;4.800;2023-02-05T04:43:25;7.00;99.90
21646;DHT22;10984;45.712;4.800;2023-02-05T04:45:51;7.00;99.90
21646;DHT22;10984;45.712;4.800;2023-02-05T04:48:16;6.90;99.90
21646;DHT22;10984;45.712;4.800;2023-02-05T04:50:42;6.90;99.90
21646;DHT22;10984;45.712;4.800;2023-02-05T04:53:08;6.90;99.90
21646;DHT22;10984;45.712;4.800;2023-02-05T04:55:34;6.90;99.90
21646;DHT22;10984;45.712;4.800;2023-02-05T04:58:00;6.90;99.90
21646;DHT22;10984;45.712;4.800;2023-02-05T05:00:26;6.80;99.90
21646;DHT22;10984;45.712;4.800;2023-02-05T05:02:52;6.80;99.90
21646;DHT22;10984;45.712;4.800;2023-02-05T05:05:18;6.80;99.90
21646;DHT22;10984;45.712;4.800;2023-02-05T05:07:44;6.70;99.90
21646;DHT22;10984;45.712;4.800;2023-02-05T05:10:10;6.70;99.90
21646;DHT22;10984;45.712;4.800;2023-02-05T05:12:36;6.70;99.90
21646;DHT22;10984;45.712;4.800;2023-02-05T05:15:03;6.60;99.90
21646;DHT22;10984;45.712;4.800;2023-02-05T05:17:29;6.60;99.90
21646;DHT22;10984;45.712;4.800;2023-02-05T05:19:55;6.60;99.90
21646;DHT22;10984;45.712;4.800;2023-02-05T05:22:21;6.50;99.90
21646;DHT22;10984;45.712;4.800;2023-02-05T05:24:47;6.60;99.90
21646;DHT22;10984;45.712;4.800;2023-02-05T05:27:12;6.60;99.90
21646;DHT22;10984;45.712;4.800;2023-02-05T05:29:38;6.60;99.90
21646;DHT22;10984;45.712;4.800;2023-02-05T05:32:04;6.60;99.90
21646;DHT22;10984;45.712;4.800;2023-02-05T05:34:30;6.60;99.90
21646;DHT22;10984;45.712;4.800;2023-02-05T05:36:55;6.60;99.90
21646;DHT22;10984;45.712;4.800;2023-02-05T05:39:21;6.60;99.90
21646;DHT22;10984;45.712;4.800;2023-02-05T05:42:05;6.50;99.90
21646;DHT22;10984;45.712;4.800;2023-02-05T05:44:50;6.50;99.90
21646;DHT22;10984;45.712;4.800;2023-02-05T05:47:34;6.50;99.90
21646;DHT22;10984;45.712;4.800;2023-02-05T05:49:59;6.50;99.90
21646;DHT22;10984;45.712;4.800;2023-02-05T05:52:25;6.40;99.90
21646;DHT22;10984;45.712;4.800;2023-02-05T05:54:51;6.40;99.90
21646;DHT22;10984;45.712;4.800;2023-02-05T05:57:16;6.40;99.90
21646;DHT22;10984;45.712;4.800;2023-02-05T05:59:42;6.40;99.90
21646;DHT22;10984;45.712;4.800;2023-02-05T06:02:07;6.40;99.90
21646;DHT22;10984;45.712;4.800;2023-02-05T06:04:33;6.40;99.90
21646;DHT22;10984;45.712;4.800;2023-02-05T06:06:59;6.30;99.90
21646;DHT22;10984;45.712;4.800;2023-02-05T06:09:26;6.30;99.90
21646;DHT22;10984;45.712;4.800;2023-02-05T06:11:52;6.40;99.90
21646;DHT22;10984;45.712;4.800;2023-02-05T06:14:18;6.40;99.90
21646;DHT22;10984;45.712;4.800;2023-02-05T06:16:44;6.40;99.90
21646;DHT22;10984;45.712;4.800;2023-02-05T06:19:09;6.40;99.90
21646;DHT22;10984;45.712;4.800;2023-02-05T06:21:35;6.50;99.90
21646;DHT22;10984;45.712;4.800;2023-02-05T06:24:00;6.50;99.90
21646;DHT22;10984;45.712;4.800;2023-02-05T06:26:26;6.50;99.90
21646;DHT22;10984;45.712;4.800;2023-02-05T06:28:52;6.50;99.90
21646;DHT22;10984;45.712;4.800;2023-02-05T06:31:17;6.50;99.90
21646;DHT22;10984;45.712;4.800;2023-02-05T06:33:43;6.50;99.90
21646;DHT22;10984;45.712;4.800;2023-02-05T06:36:12;6.50;99.90
21646;DHT22;10984;45.712;4.800;2023-02-05T06:41:28;6.40;99.90
21646;DHT22;10984;45.712;4.800;2023-02-05T06:43:53;6.40;99.90
21646;DHT22;10984;45.712;4.800;2023-02-05T06:46:19;6.40;99.90
21646;DHT22;10984;45.712;4.800;2023-02-05T06:48:44;6.40;99.90
21646;DHT22;10984;45.712;4.800;2023-02-05T06:51:10;6.40;99.90
21646;DHT22;10984;45.712;4.800;2023-02-05T06:53:37;6.40;99.90
21646;DHT22;10984;45.712;4.800;2023-02-05T06:56:03;6.40;99.90
21646;DHT22;10984;45.712;4.800;2023-02-05T06:58:29;6.50;99.90
21646;DHT22;10984;45.712;4.800;2023-02-05T07:00:55;6.50;99.90
21646;DHT22;10984;45.712;4.800;2023-02-05T07:03:20;6.60;99.90
21646;DHT22;10984;45.712;4.800;2023-02-05T07:05:46;6.70;99.90
21646;DHT22;10984;45.712;4.800;2023-02-05T07:08:11;6.70;99.90
21646;DHT22;10984;45.712;4.800;2023-02-05T07:10:40;6.80;99.90
21646;DHT22;10984;45.712;4.800;2023-02-05T07:13:25;6.90;99.90
21646;DHT22;10984;45.712;4.800;2023-02-05T07:26:17;7.20;99.90
21646;DHT22;10984;45.712;4.800;2023-02-05T07:28:44;7.30;99.90
21646;DHT22;10984;45.712;4.800;2023-02-05T07:31:12;7.30;99.90
21646;DHT22;10984;45.712;4.800;2023-02-05T07:33:56;7.40;99.90
21646;DHT22;10984;45.712;4.800;2023-02-05T07:36:22;7.40;99.90
21646;DHT22;10984;45.712;4.800;2023-02-05T07:38:47;7.50;99.90
21646;DHT22;10984;45.712;4.800;2023-02-05T07:41:14;7.50;99.90
21646;DHT22;10984;45.712;4.800;2023-02-05T07:43:41;7.60;99.90
21646;DHT22;10984;45.712;4.800;2023-02-05T07:46:09;7.60;99.90
21646;DHT22;10984;45.712;4.800;2023-02-05T07:48:35;7.70;99.90
21646;DHT22;10984;45.712;4.800;2023-02-05T07:51:02;7.70;99.90
21646;DHT22;10984;45.712;4.800;2023-02-05T07:53:27;7.60;99.90
21646;DHT22;10984;45.712;4.800;2023-02-05T07:55:53;7.70;99.90
21646;DHT22;10984;45.712;4.800;2023-02-05T07:58:19;7.70;99.90
21646;DHT22;10984;45.712;4.800;2023-02-05T08:00:45;7.70;99.90
21646;DHT22;10984;45.712;4.800;2023-02-05T08:03:11;7.70;99.90
21646;DHT22;10984;45.712;4.800;2023-02-05T08:05:37;7.80;99.90
21646;DHT22;10984;45.712;4.800;2023-02-05T08:08:04;7.80;99.90
21646;DHT22;10984;45.712;4.800;2023-02-05T08:10:30;7.80;99.90
21646;DHT22;10984;45.712;4.800;2023-02-05T08:12:56;7.80;99.90
21646;DHT22;10984;45.712;4.800;2023-02-05T08:15:22;7.80;99.90
21646;DHT22;10984;45.712;4.800;2023-02-05T08:17:47;7.90;99.90
21646;DHT22;10984;45.712;4.800;2023-02-05T08:20:13;8.00;99.90
21646;DHT22;10984;45.712;4.800;2023-02-05T08:22:41;8.10;99.90
21646;DHT22;10984;45.712;4.800;2023-02-05T08:25:10;8.30;99.90
21646;DHT22;10984;45.712;4.800;2023-02-05T08:27:37;8.40;99.90
21646;DHT22;10984;45.712;4.800;2023-02-05T08:30:05;8.60;99.90
21646;DHT22;10984;45.712;4.800;2023-02-05T08:32:31;8.70;99.90
21646;DHT22;10984;45.712;4.800;2023-02-05T08:34:57;8.70;99.90
21646;DHT22;10984;45.712;4.800;2023-02-05T08:37:23;8.70;99.90
21646;DHT22;10984;45.712;4.800;2023-02-05T08:39:49;8.60;99.90
21646;DHT22;10984;45.712;4.800;2023-02-05T08:42:15;8.60;99.90
21646;DHT22;10984;45.712;4.800;2023-02-05T08:44:41;8.60;99.90
21646;DHT22;10984;45.712;4.800;2023-02-05T08:47:06;8.70;99.90
21646;DHT22;10984;45.712;4.800;2023-02-05T08:49:32;8.70;99.90
21646;DHT22;10984;45.712;4.800;2023-02-05T08:51:57;8.70;99.90
21646;DHT22;10984;45.712;4.800;2023-02-05T08:54:23;8.70;99.90
21646;DHT22;10984;45.712;4.800;2023-02-05T08:56:51;8.70;99.90
21646;DHT22;10984;45.712;4.800;2023-02-05T08:59:18;8.70;99.90
21646;DHT22;10984;45.712;4.800;2023-02-05T09:01:44;8.70;99.90
21646;DHT22;10984;45.712;4.800;2023-02-05T09:04:28;8.80;99.90
21646;DHT22;10984;45.712;4.800;2023-02-05T09:06:55;8.80;99.90
21646;DHT22;10984;45.712;4.800;2023-02-05T09:09:21;8.90;99.90
21646;DHT22;10984;45.712;4.800;2023-02-05T09:11:47;8.90;99.90
21646;DHT22;10984;45.712;4.800;2023-02-05T09:14:13;9.00;99.90
21646;DHT22;10984;45.712;4.800;2023-02-05T09:16:39;9.00;99.90
21646;DHT22;10984;45.712;4.800;2023-02-05T09:19:05;9.00;99.90
21646;DHT22;10984;45.712;4.800;2023-02-05T09:21:31;9.00;99.90
21646;DHT22;10984;45.712;4.800;2023-02-05T09:23:56;9.00;99.90
21646;DHT22;10984;45.712;4.800;2023-02-05T09:26:23;9.10;99.90
21646;DHT22;10984;45.712;4.800;2023-02-05T09:28:48;9.20;99.90
21646;DHT22;10984;45.712;4.800;2023-02-05T09:31:17;9.20;99.90
21646;DHT22;10984;45.712;4.800;2023-02-05T09:33:43;9.10;99.90
21646;DHT22;10984;45.712;4.800;2023-02-05T09:36:13;9.30;99.90
21646;DHT22;10984;45.712;4.800;2023-02-05T09:38:39;9.20;99.90
21646;DHT22;10984;45.712;4.800;2023-02-05T09:53:02;8.90;99.90
21646;DHT22;10984;45.712;4.800;2023-02-05T09:55:32;9.10;99.90
21646;DHT22;10984;45.712;4.800;2023-02-05T09:58:05;9.20;99.90
21646;DHT22;10984;45.712;4.800;2023-02-05T10:00:52;9.20;99.90
21646;DHT22;10984;45.712;4.800;2023-02-05T10:26:18;9.40;99.90
21646;DHT22;10984;45.712;4.800;2023-02-05T10:37:54;10.00;99.90
21646;DHT22;10984;45.712;4.800;2023-02-05T10:46:15;10.20;99.90
21646;DHT22;10984;45.712;4.800;2023-02-05T10:51:46;10.10;99.90
21646;DHT22;10984;45.712;4.800;2023-02-05T10:54:31;10.20;99.90
21646;DHT22;10984;45.712;4.800;2023-02-05T10:56:58;10.30;99.90
21646;DHT22;10984;45.712;4.800;2023-02-05T11:02:32;10.00;99.90
21646;DHT22;10984;45.712;4.800;2023-02-05T11:05:02;9.70;99.90
21646;DHT22;10984;45.712;4.800;2023-02-05T11:07:48;9.60;99.90
21646;DHT22;10984;45.712;4.800;2023-02-05T11:10:15;9.70;99.90
21646;DHT22;10984;45.712;4.800;2023-02-05T11:15:29;9.70;99.90
21646;DHT22;10984;45.712;4.800;2023-02-05T11:17:59;9.60;99.90
21646;DHT22;10984;45.712;4.800;2023-02-05T11:20:44;9.50;99.90
21646;DHT22;10984;45.712;4.800;2023-02-05T11:23:21;9.30;99.90
21646;DHT22;10984;45.712;4.800;2023-02-05T11:26:13;9.10;99.90
21646;DHT22;10984;45.712;4.800;2023-02-05T11:28:42;9.10;99.90
21646;DHT22;10984;45.712;4.800;2023-02-05T11:31:27;9.10;99.90
21646;DHT22;10984;45.712;4.800;2023-02-05T11:36:56;9.20;99.90
21646;DHT22;10984;45.712;4.800;2023-02-05T11:39:42;9.20;99.90
21646;DHT22;10984;45.712;4.800;2023-02-05T11:42:27;9.30;99.90
21646;DHT22;10984;45.712;4.800;2023-02-05T11:45:14;9.30;99.90
21646;DHT22;10984;45.712;4.800;2023-02-05T11:47:41;9.50;99.90
21646;DHT22;10984;45.712;4.800;2023-02-05T11:50:20;9.50;99.90
21646;DHT22;10984;45.712;4.800;2023-02-05T11:52:47;9.50;99.90
21646;DHT22;10984;45.712;4.800;2023-02-05T11:55:32;9.50;99.90
21646;DHT22;10984;45.712;4.800;2023-02-05T11:58:04;9.60;99.90
21646;DHT22;10984;45.712;4.800;2023-02-05T12:00:30;9.70;99.90
21646;DHT22;10984;45.712;4.800;2023-02-05T12:03:16;9.60;99.90
21646;DHT22;10984;45.712;4.800;2023-02-05T12:05:49;9.70;99.90
21646;DHT22;10984;45.712;4.800;2023-02-05T12:08:56;9.50;99.90
21646;DHT22;10984;45.712;4.800;2023-02-05T12:14:48;9.70;99.90
21646;DHT22;10984;45.712;4.800;2023-02-05T12:43:49;9.40;99.90
21646;DHT22;10984;45.712;4.800;2023-02-05T12:57:45;9.10;99.90
21646;DHT22;10984;45.712;4.800;2023-02-05T13:00:37;9.10;99.90
21646;DHT22;10984;45.712;4.800;2023-02-05T13:11:56;9.00;99.90
21646;DHT22;10984;45.712;4.800;2023-02-05T13:14:24;9.00;99.90
21646;DHT22;10984;45.712;4.800;2023-02-05T13:22:42;9.00;99.90
21646;DHT22;10984;45.712;4.800;2023-02-05T13:25:35;9.00;99.90
21646;DHT22;10984;45.712;4.800;2023-02-05T13:31:42;9.10;99.90
21646;DHT22;10984;45.712;4.800;2023-02-05T13:34:14;9.10;99.90
21646;DHT22;10984;45.712;4.800;2023-02-05T14:00:27;9.80;99.90
21646;DHT22;10984;45.712;4.800;2023-02-05T14:02:54;9.90;99.90
21646;DHT22;10984;45.712;4.800;2023-02-05T14:05:40;9.80;99.90
21646;DHT22;10984;45.712;4.800;2023-02-05T14:08:22;9.90;99.90
21646;DHT22;10984;45.712;4.800;2023-02-05T14:10:57;9.80;99.90
21646;DHT22;10984;45.712;4.800;2023-02-05T14:15:52;9.90;99.90
21646;DHT22;10984;45.712;4.800;2023-02-05T14:24:44;9.90;99.90
21646;DHT22;10984;45.712;4.800;2023-02-05T14:29:55;9.80;99.90
21646;DHT22;10984;45.712;4.800;2023-02-05T14:38:31;9.60;99.90
21646;DHT22;10984;45.712;4.800;2023-02-05T14:41:18;9.60;99.90
21646;DHT22;10984;45.712;4.800;2023-02-05T14:44:16;9.40;99.90
21646;DHT22;10984;45.712;4.800;2023-02-05T14:52:44;9.60;99.90
21646;DHT22;10984;45.712;4.800;2023-02-05T14:55:34;9.70;99.90
21646;DHT22;10984;45.712;4.800;2023-02-05T15:07:37;9.50;99.90
21646;DHT22;10984;45.712;4.800;2023-02-05T15:10:05;9.50;99.90
21646;DHT22;10984;45.712;4.800;2023-02-05T15:18:31;9.30;99.90
21646;DHT22;10984;45.712;4.800;2023-02-05T15:20:58;9.30;99.90
21646;DHT22;10984;45.712;4.800;2023-02-05T15:23:44;9.30;99.90
21646;DHT22;10984;45.712;4.800;2023-02-05T15:32:48;9.50;99.90
21646;DHT22;10984;45.712;4.800;2023-02-05T15:35:18;9.50;99.90
21646;DHT22;10984;45.712;4.800;2023-02-05T15:38:07;9.60;99.90
21646;DHT22;10984;45.712;4.800;2023-02-05T15:40:39;9.50;99.90
21646;DHT22;10984;45.712;4.800;2023-02-05T15:43:25;9.50;99.90
21646;DHT22;10984;45.712;4.800;2023-02-05T15:46:10;9.50;99.90
21646;DHT22;10984;45.712;4.800;2023-02-05T15:48:39;9.50;99.90
21646;DHT22;10984;45.712;4.800;2023-02-05T15:54:17;9.30;99.90
21646;DHT22;10984;45.712;4.800;2023-02-05T15:56:50;9.30;99.90
21646;DHT22;10984;45.712;4.800;2023-02-05T15:59:35;9.20;99.90
21646;DHT22;10984;45.712;4.800;2023-02-05T16:02:22;9.20;99.90
21646;DHT22;10984;45.712;4.800;2023-02-05T16:07:52;9.20;99.90
21646;DHT22;10984;45.712;4.800;2023-02-05T16:10:36;9.20;99.90
21646;DHT22;10984;45.712;4.800;2023-02-05T16:18:50;9.00;99.90
21646;DHT22;10984;45.712;4.800;2023-02-05T16:30:29;9.00;99.90
21646;DHT22;10984;45.712;4.800;2023-02-05T16:32:56;9.00;99.90
21646;DHT22;10984;45.712;4.800;2023-02-05T16:35:27;9.00;99.90
21646;DHT22;10984;45.712;4.800;2023-02-05T16:37:54;9.00;99.90
21646;DHT22;10984;45.712;4.800;2023-02-05T16:40:39;9.00;99.90
21646;DHT22;10984;45.712;4.800;2023-02-05T16:48:58;8.90;99.90
21646;DHT22;10984;45.712;4.800;2023-02-05T16:54:33;8.80;99.90
21646;DHT22;10984;45.712;4.800;2023-02-05T17:00:04;8.70;99.90
21646;DHT22;10984;45.712;4.800;2023-02-05T17:05:35;8.60;99.90
21646;DHT22;10984;45.712;4.800;2023-02-05T17:11:06;8.50;99.90
21646;DHT22;10984;45.712;4.800;2023-02-05T17:13:51;8.40;99.90
21646;DHT22;10984;45.712;4.800;2023-02-05T17:19:38;8.30;99.90
21646;DHT22;10984;45.712;4.800;2023-02-05T17:22:22;8.30;99.90
21646;DHT22;10984;45.712;4.800;2023-02-05T17:24:48;8.30;99.90
21646;DHT22;10984;45.712;4.800;2023-02-05T17:27:29;8.30;99.90
21646;DHT22;10984;45.712;4.800;2023-02-05T17:29:57;8.30;99.90
21646;DHT22;10984;45.712;4.800;2023-02-05T17:32:23;8.20;99.90
21646;DHT22;10984;45.712;4.800;2023-02-05T17:34:49;8.20;99.90
21646;DHT22;10984;45.712;4.800;2023-02-05T17:37:15;8.20;99.90
21646;DHT22;10984;45.712;4.800;2023-02-05T17:39:41;8.20;99.90
21646;DHT22;10984;45.712;4.800;2023-02-05T17:44:58;8.30;99.90
21646;DHT22;10984;45.712;4.800;2023-02-05T17:47:23;8.20;99.90
21646;DHT22;10984;45.712;4.800;2023-02-05T17:49:49;8.30;99.90
21646;DHT22;10984;45.712;4.800;2023-02-05T17:52:14;8.30;99.90
21646;DHT22;10984;45.712;4.800;2023-02-05T17:54:41;8.20;99.90
21646;DHT22;10984;45.712;4.800;2023-02-05T17:57:26;8.10;99.90
21646;DHT22;10984;45.712;4.800;2023-02-05T17:59:52;7.80;99.90
21646;DHT22;10984;45.712;4.800;2023-02-05T18:02:17;7.50;99.90
21646;DHT22;10984;45.712;4.800;2023-02-05T18:04:44;7.30;99.90
21646;DHT22;10984;45.712;4.800;2023-02-05T18:09:44;7.20;99.90
21646;DHT22;10984;45.712;4.800;2023-02-05T18:12:09;7.20;99.90
21646;DHT22;10984;45.712;4.800;2023-02-05T18:14:35;7.10;99.90
21646;DHT22;10984;45.712;4.800;2023-02-05T18:17:01;7.20;99.90
21646;DHT22;10984;45.712;4.800;2023-02-05T18:19:26;7.30;99.90
21646;DHT22;10984;45.712;4.800;2023-02-05T18:21:53;7.30;99.90
21646;DHT22;10984;45.712;4.800;2023-02-05T18:24:19;7.20;99.90
21646;DHT22;10984;45.712;4.800;2023-02-05T18:26:45;7.20;99.90
21646;DHT22;10984;45.712;4.800;2023-02-05T18:29:12;7.20;99.90
21646;DHT22;10984;45.712;4.800;2023-02-05T18:31:38;7.10;99.90
21646;DHT22;10984;45.712;4.800;2023-02-05T18:34:04;7.10;99.90
21646;DHT22;10984;45.712;4.800;2023-02-05T18:36:29;7.10;99.90
21646;DHT22;10984;45.712;4.800;2023-02-05T18:38:55;7.00;99.90
21646;DHT22;10984;45.712;4.800;2023-02-05T18:41:22;6.90;99.90
21646;DHT22;10984;45.712;4.800;2023-02-05T18:43:52;6.90;99.90
21646;DHT22;10984;45.712;4.800;2023-02-05T18:46:19;6.80;99.90
21646;DHT22;10984;45.712;4.800;2023-02-05T18:48:45;6.80;99.90
21646;DHT22;10984;45.712;4.800;2023-02-05T18:53:59;6.80;99.90
21646;DHT22;10984;45.712;4.800;2023-02-05T18:56:26;6.90;99.90
21646;DHT22;10984;45.712;4.800;2023-02-05T18:58:54;6.80;99.90
21646;DHT22;10984;45.712;4.800;2023-02-05T19:01:25;6.90;99.90
21646;DHT22;10984;45.712;4.800;2023-02-05T19:03:51;7.00;99.90
21646;DHT22;10984;45.712;4.800;2023-02-05T19:06:19;6.90;99.90
21646;DHT22;10984;45.712;4.800;2023-02-05T19:08:46;7.00;99.90
21646;DHT22;10984;45.712;4.800;2023-02-05T19:11:15;7.00;99.90
21646;DHT22;10984;45.712;4.800;2023-02-05T19:13:41;7.10;99.90
21646;DHT22;10984;45.712;4.800;2023-02-05T19:16:10;7.10;99.90
21646;DHT22;10984;45.712;4.800;2023-02-05T19:18:55;7.10;99.90
21646;DHT22;10984;45.712;4.800;2023-02-05T19:21:22;7.00;99.90
21646;DHT22;10984;45.712;4.800;2023-02-05T19:23:50;7.00;99.90
21646;DHT22;10984;45.712;4.800;2023-02-05T19:29:07;7.00;99.90
21646;DHT22;10984;45.712;4.800;2023-02-05T19:31:34;7.00;99.90
21646;DHT22;10984;45.712;4.800;2023-02-05T19:34:01;7.00;99.90
21646;DHT22;10984;45.712;4.800;2023-02-05T19:36:27;7.00;99.90
21646;DHT22;10984;45.712;4.800;2023-02-05T19:38:53;7.00;99.90
21646;DHT22;10984;45.712;4.800;2023-02-05T19:41:22;7.00;99.90
21646;DHT22;10984;45.712;4.800;2023-02-05T19:44:07;7.10;99.90
21646;DHT22;10984;45.712;4.800;2023-02-05T19:46:51;7.00;99.90
21646;DHT22;10984;45.712;4.800;2023-02-05T19:49:18;6.90;99.90
21646;DHT22;10984;45.712;4.800;2023-02-05T19:51:49;6.80;99.90
21646;DHT22;10984;45.712;4.800;2023-02-05T19:54:16;6.80;99.90
21646;DHT22;10984;45.712;4.800;2023-02-05T19:56:42;6.80;99.90
21646;DHT22;10984;45.712;4.800;2023-02-05T19:59:08;6.80;99.90
21646;DHT22;10984;45.712;4.800;2023-02-05T20:01:36;6.80;99.90
21646;DHT22;10984;45.712;4.800;2023-02-05T20:04:22;6.80;99.90
21646;DHT22;10984;45.712;4.800;2023-02-05T20:06:52;6.80;99.90
21646;DHT22;10984;45.712;4.800;2023-02-05T20:09:18;6.80;99.90
21646;DHT22;10984;45.712;4.800;2023-02-05T20:11:47;6.80;99.90
21646;DHT22;10984;45.712;4.800;2023-02-05T20:14:14;6.80;99.90
21646;DHT22;10984;45.712;4.800;2023-02-05T20:16:41;6.80;99.90
21646;DHT22;10984;45.712;4.800;2023-02-05T20:19:14;6.80;99.90
21646;DHT22;10984;45.712;4.800;2023-02-05T20:21:40;6.80;99.90
21646;DHT22;10984;45.712;4.800;2023-02-05T20:24:06;6.80;99.90
21646;DHT22;10984;45.712;4.800;2023-02-05T20:26:33;6.80;99.90
21646;DHT22;10984;45.712;4.800;2023-02-05T20:28:58;6.80;99.90
21646;DHT22;10984;45.712;4.800;2023-02-05T20:31:46;6.90;99.90
21646;DHT22;10984;45.712;4.800;2023-02-05T20:36:43;6.80;99.90
21646;DHT22;10984;45.712;4.800;2023-02-05T20:39:09;6.80;99.90
21646;DHT22;10984;45.712;4.800;2023-02-05T20:41:35;6.80;99.90
21646;DHT22;10984;45.712;4.800;2023-02-05T20:44:01;6.70;99.90
21646;DHT22;10984;45.712;4.800;2023-02-05T20:46:28;6.70;99.90
21646;DHT22;10984;45.712;4.800;2023-02-05T20:48:54;6.70;99.90
21646;DHT22;10984;45.712;4.800;2023-02-05T20:51:20;6.80;99.90
21646;DHT22;10984;45.712;4.800;2023-02-05T20:53:46;6.60;99.90
21646;DHT22;10984;45.712;4.800;2023-02-05T20:56:15;6.70;99.90
21646;DHT22;10984;45.712;4.800;2023-02-05T20:58:41;6.70;99.90
21646;DHT22;10984;45.712;4.800;2023-02-05T21:01:26;6.70;99.90
21646;DHT22;10984;45.712;4.800;2023-02-05T21:03:54;6.70;99.90